sensor_id;sensor_type;location;lat;lon;timestamp;P1;durP1;ratioP1;P2;durP2;ratioP2
25155;SDS011;71253;51.496;7.606;2024-02-21T00:01:16;57.33;;;17.25;;
25155;SDS011;71253;51.496;7.606;2024-02-21T00:06:18;61.10;;;16.98;;
25155;SDS011;71253;51.496;7.606;2024-02-21T00:11:20;58.30;;;18.08;;
25155;SDS011;71253;51.496;7.606;2024-02-21T00:16:22;56.20;;;17.10;;
25155;SDS011;71253;51.496;7.606;2024-02-21T00:21:23;49.97;;;16.95;;
25155;SDS011;71253;51.496;7.606;2024-02-21T00:26:25;51.75;;;17.00;;
25155;SDS011;71253;51.496;7.606;2024-02-21T00:31:27;48.65;;;16.48;;
25155;SDS011;71253;51.496;7.606;2024-02-21T00:36:28;49.42;;;16.98;;
25155;SDS011;71253;51.496;7.606;2024-02-21T00:41:30;48.95;;;17.45;;
25155;SDS011;71253;51.496;7.606;2024-02-21T00:46:31;51.90;;;16.27;;
25155;SDS011;71253;51.496;7.606;2024-02-21T00:51:33;52.00;;;17.98;;
25155;SDS011;71253;51.496;7.606;2024-02-21T00:56:34;57.63;;;17.50;;
25155;SDS011;71253;51.496;7.606;2024-02-21T01:01:36;47.40;;;17.45;;
25155;SDS011;71253;51.496;7.606;2024-02-21T01:06:37;52.67;;;17.33;;
25155;SDS011;71253;51.496;7.606;2024-02-21T01:11:39;60.33;;;17.65;;
25155;SDS011;71253;51.496;7.606;2024-02-21T01:16:41;51.03;;;17.60;;
25155;SDS011;71253;51.496;7.606;2024-02-21T01:21:42;57.30;;;17.42;;
25155;SDS011;71253;51.496;7.606;2024-02-21T01:26:44;51.95;;;17.75;;
25155;SDS011;71253;51.496;7.606;2024-02-21T01:31:45;47.03;;;17.30;;
25155;SDS011;71253;51.496;7.606;2024-02-21T01:36:47;49.28;;;17.08;;
25155;SDS011;71253;51.496;7.606;2024-02-21T01:41:49;56.55;;;17.90;;
25155;SDS011;71253;51.496;7.606;2024-02-21T01:46:50;52.35;;;17.05;;
25155;SDS011;71253;51.496;7.606;2024-02-21T01:51:53;52.65;;;17.83;;
25155;SDS011;71253;51.496;7.606;2024-02-21T01:56:58;49.25;;;17.77;;
25155;SDS011;71253;51.496;7.606;2024-02-21T02:02:00;58.88;;;17.92;;
25155;SDS011;71253;51.496;7.606;2024-02-21T02:07:02;54.58;;;17.38;;
25155;SDS011;71253;51.496;7.606;2024-02-21T02:12:05;55.47;;;18.23;;
25155;SDS011;71253;51.496;7.606;2024-02-21T02:17:07;50.15;;;17.15;;
25155;SDS011;71253;51.496;7.606;2024-02-21T02:22:09;44.28;;;16.27;;
25155;SDS011;71253;51.496;7.606;2024-02-21T02:27:20;52.78;;;16.60;;
25155;SDS011;71253;51.496;7.606;2024-02-21T02:32:21;53.20;;;15.52;;
25155;SDS011;71253;51.496;7.606;2024-02-21T02:37:23;44.40;;;15.35;;
25155;SDS011;71253;51.496;7.606;2024-02-21T02:42:25;44.40;;;15.55;;
25155;SDS011;71253;51.496;7.606;2024-02-21T02:47:26;44.08;;;14.95;;
25155;SDS011;71253;51.496;7.606;2024-02-21T02:52:28;61.38;;;17.60;;
25155;SDS011;71253;51.496;7.606;2024-02-21T02:57:30;50.20;;;16.45;;
25155;SDS011;71253;51.496;7.606;2024-02-21T03:02:31;47.00;;;17.40;;
25155;SDS011;71253;51.496;7.606;2024-02-21T03:07:33;64.15;;;18.50;;
25155;SDS011;71253;51.496;7.606;2024-02-21T03:12:34;51.85;;;17.20;;
25155;SDS011;71253;51.496;7.606;2024-02-21T03:17:36;53.30;;;16.02;;
25155;SDS011;71253;51.496;7.606;2024-02-21T03:22:37;56.92;;;17.88;;
25155;SDS011;71253;51.496;7.606;2024-02-21T03:27:39;53.17;;;17.25;;
25155;SDS011;71253;51.496;7.606;2024-02-21T03:32:41;42.92;;;15.32;;
25155;SDS011;71253;51.496;7.606;2024-02-21T03:37:44;46.92;;;16.63;;
25155;SDS011;71253;51.496;7.606;2024-02-21T03:42:46;47.22;;;15.55;;
25155;SDS011;71253;51.496;7.606;2024-02-21T03:47:48;51.45;;;15.88;;
25155;SDS011;71253;51.496;7.606;2024-02-21T03:52:49;53.30;;;16.40;;
25155;SDS011;71253;51.496;7.606;2024-02-21T03:57:51;47.17;;;14.43;;
25155;SDS011;71253;51.496;7.606;2024-02-21T04:02:52;48.47;;;15.85;;
25155;SDS011;71253;51.496;7.606;2024-02-21T04:07:54;42.03;;;14.40;;
25155;SDS011;71253;51.496;7.606;2024-02-21T04:12:56;47.92;;;14.68;;
25155;SDS011;71253;51.496;7.606;2024-02-21T04:17:57;42.10;;;14.38;;
25155;SDS011;71253;51.496;7.606;2024-02-21T04:22:59;37.85;;;14.05;;
25155;SDS011;71253;51.496;7.606;2024-02-21T04:28:00;37.70;;;13.75;;
25155;SDS011;71253;51.496;7.606;2024-02-21T04:33:02;40.75;;;14.32;;
25155;SDS011;71253;51.496;7.606;2024-02-21T04:38:04;46.35;;;14.05;;
25155;SDS011;71253;51.496;7.606;2024-02-21T04:43:05;37.38;;;13.52;;
25155;SDS011;71253;51.496;7.606;2024-02-21T04:48:07;41.58;;;13.02;;
25155;SDS011;71253;51.496;7.606;2024-02-21T04:53:08;37.03;;;14.02;;
25155;SDS011;71253;51.496;7.606;2024-02-21T04:58:10;39.67;;;14.10;;
25155;SDS011;71253;51.496;7.606;2024-02-21T05:03:12;38.25;;;12.68;;
25155;SDS011;71253;51.496;7.606;2024-02-21T05:08:13;35.47;;;12.70;;
25155;SDS011;71253;51.496;7.606;2024-02-21T05:13:15;38.22;;;11.90;;
25155;SDS011;71253;51.496;7.606;2024-02-21T05:18:16;33.65;;;12.27;;
25155;SDS011;71253;51.496;7.606;2024-02-21T05:23:18;34.17;;;11.98;;
25155;SDS011;71253;51.496;7.606;2024-02-21T05:28:19;36.25;;;12.70;;
25155;SDS011;71253;51.496;7.606;2024-02-21T05:33:21;39.85;;;12.75;;
25155;SDS011;71253;51.496;7.606;2024-02-21T05:38:23;38.30;;;12.60;;
25155;SDS011;71253;51.496;7.606;2024-02-21T05:43:24;36.38;;;11.93;;
25155;SDS011;71253;51.496;7.606;2024-02-21T05:48:26;34.25;;;11.13;;
25155;SDS011;71253;51.496;7.606;2024-02-21T05:53:27;40.35;;;11.80;;
25155;SDS011;71253;51.496;7.606;2024-02-21T05:58:29;27.40;;;10.65;;
25155;SDS011;71253;51.496;7.606;2024-02-21T06:03:31;34.85;;;11.40;;
25155;SDS011;71253;51.496;7.606;2024-02-21T06:08:32;30.73;;;11.23;;
25155;SDS011;71253;51.496;7.606;2024-02-21T06:13:37;32.33;;;11.55;;
25155;SDS011;71253;51.496;7.606;2024-02-21T06:18:39;35.20;;;10.45;;
25155;SDS011;71253;51.496;7.606;2024-02-21T06:23:41;31.65;;;10.95;;
25155;SDS011;71253;51.496;7.606;2024-02-21T06:28:42;34.15;;;10.73;;
25155;SDS011;71253;51.496;7.606;2024-02-21T06:33:44;34.20;;;10.90;;
25155;SDS011;71253;51.496;7.606;2024-02-21T06:38:46;36.97;;;10.95;;
25155;SDS011;71253;51.496;7.606;2024-02-21T06:43:47;27.13;;;10.27;;
25155;SDS011;71253;51.496;7.606;2024-02-21T06:48:49;26.45;;;9.57;;
25155;SDS011;71253;51.496;7.606;2024-02-21T06:53:51;32.25;;;9.40;;
25155;SDS011;71253;51.496;7.606;2024-02-21T06:58:52;25.70;;;9.30;;
25155;SDS011;71253;51.496;7.606;2024-02-21T07:03:54;21.88;;;8.25;;
25155;SDS011;71253;51.496;7.606;2024-02-21T07:08:56;26.60;;;9.20;;
25155;SDS011;71253;51.496;7.606;2024-02-21T07:13:57;26.50;;;7.75;;
25155;SDS011;71253;51.496;7.606;2024-02-21T07:18:59;24.30;;;8.10;;
25155;SDS011;71253;51.496;7.606;2024-02-21T07:24:00;25.02;;;8.52;;
25155;SDS011;71253;51.496;7.606;2024-02-21T07:29:02;21.73;;;8.00;;
25155;SDS011;71253;51.496;7.606;2024-02-21T07:34:03;29.67;;;8.02;;
25155;SDS011;71253;51.496;7.606;2024-02-21T07:39:05;24.90;;;8.00;;
25155;SDS011;71253;51.496;7.606;2024-02-21T07:44:06;20.80;;;7.43;;
25155;SDS011;71253;51.496;7.606;2024-02-21T07:49:08;30.55;;;8.90;;
25155;SDS011;71253;51.496;7.606;2024-02-21T07:54:10;24.40;;;8.10;;
25155;SDS011;71253;51.496;7.606;2024-02-21T07:59:13;29.55;;;8.27;;
25155;SDS011;71253;51.496;7.606;2024-02-21T08:04:15;29.25;;;9.30;;
25155;SDS011;71253;51.496;7.606;2024-02-21T08:09:16;26.42;;;9.43;;
25155;SDS011;71253;51.496;7.606;2024-02-21T08:14:18;22.35;;;8.98;;
25155;SDS011;71253;51.496;7.606;2024-02-21T08:19:21;33.45;;;10.00;;
25155;SDS011;71253;51.496;7.606;2024-02-21T08:24:23;29.13;;;9.30;;
25155;SDS011;71253;51.496;7.606;2024-02-21T08:29:24;22.00;;;9.13;;
25155;SDS011;71253;51.496;7.606;2024-02-21T08:34:26;27.80;;;9.02;;
25155;SDS011;71253;51.496;7.606;2024-02-21T08:39:27;29.75;;;9.50;;
25155;SDS011;71253;51.496;7.606;2024-02-21T08:44:29;27.08;;;9.13;;
25155;SDS011;71253;51.496;7.606;2024-02-21T08:49:31;26.40;;;8.35;;
25155;SDS011;71253;51.496;7.606;2024-02-21T08:54:33;18.13;;;7.28;;
25155;SDS011;71253;51.496;7.606;2024-02-21T08:59:34;21.33;;;7.72;;
25155;SDS011;71253;51.496;7.606;2024-02-21T09:04:36;23.42;;;7.97;;
25155;SDS011;71253;51.496;7.606;2024-02-21T09:09:38;26.88;;;8.90;;
25155;SDS011;71253;51.496;7.606;2024-02-21T09:14:39;22.35;;;7.40;;
25155;SDS011;71253;51.496;7.606;2024-02-21T09:19:41;26.33;;;9.55;;
25155;SDS011;71253;51.496;7.606;2024-02-21T09:24:42;31.90;;;11.63;;
25155;SDS011;71253;51.496;7.606;2024-02-21T09:29:44;32.28;;;12.30;;
25155;SDS011;71253;51.496;7.606;2024-02-21T09:34:45;30.17;;;12.02;;
25155;SDS011;71253;51.496;7.606;2024-02-21T09:39:47;34.08;;;12.00;;
25155;SDS011;71253;51.496;7.606;2024-02-21T09:44:49;31.60;;;10.85;;
25155;SDS011;71253;51.496;7.606;2024-02-21T09:49:52;28.48;;;10.48;;
25155;SDS011;71253;51.496;7.606;2024-02-21T09:54:54;32.40;;;8.98;;
25155;SDS011;71253;51.496;7.606;2024-02-21T09:59:56;22.90;;;7.40;;
25155;SDS011;71253;51.496;7.606;2024-02-21T10:04:58;25.67;;;7.05;;
25155;SDS011;71253;51.496;7.606;2024-02-21T10:10:00;23.50;;;7.38;;
25155;SDS011;71253;51.496;7.606;2024-02-21T10:15:03;28.38;;;7.75;;
25155;SDS011;71253;51.496;7.606;2024-02-21T10:20:09;30.13;;;8.05;;
25155;SDS011;71253;51.496;7.606;2024-02-21T10:25:11;33.97;;;8.20;;
25155;SDS011;71253;51.496;7.606;2024-02-21T10:30:14;37.15;;;8.98;;
25155;SDS011;71253;51.496;7.606;2024-02-21T10:35:26;27.52;;;7.60;;
25155;SDS011;71253;51.496;7.606;2024-02-21T10:40:31;27.85;;;7.68;;
25155;SDS011;71253;51.496;7.606;2024-02-21T10:45:36;29.83;;;7.72;;
25155;SDS011;71253;51.496;7.606;2024-02-21T10:50:52;28.30;;;8.05;;
25155;SDS011;71253;51.496;7.606;2024-02-21T10:56:01;27.70;;;8.15;;
25155;SDS011;71253;51.496;7.606;2024-02-21T11:01:26;30.35;;;8.43;;
25155;SDS011;71253;51.496;7.606;2024-02-21T11:06:29;33.60;;;8.77;;
25155;SDS011;71253;51.496;7.606;2024-02-21T11:11:35;30.33;;;9.15;;
25155;SDS011;71253;51.496;7.606;2024-02-21T11:16:39;26.50;;;8.93;;
25155;SDS011;71253;51.496;7.606;2024-02-21T11:21:42;27.08;;;8.38;;
25155;SDS011;71253;51.496;7.606;2024-02-21T11:26:44;24.00;;;9.02;;
25155;SDS011;71253;51.496;7.606;2024-02-21T11:31:50;25.33;;;8.02;;
25155;SDS011;71253;51.496;7.606;2024-02-21T11:36:52;29.42;;;7.80;;
25155;SDS011;71253;51.496;7.606;2024-02-21T11:42:01;24.25;;;6.78;;
25155;SDS011;71253;51.496;7.606;2024-02-21T11:47:09;25.27;;;6.80;;
25155;SDS011;71253;51.496;7.606;2024-02-21T11:52:10;25.00;;;6.07;;
25155;SDS011;71253;51.496;7.606;2024-02-21T11:57:12;25.00;;;5.70;;
25155;SDS011;71253;51.496;7.606;2024-02-21T12:02:14;17.77;;;5.65;;
25155;SDS011;71253;51.496;7.606;2024-02-21T12:07:15;19.73;;;5.20;;
25155;SDS011;71253;51.496;7.606;2024-02-21T12:12:19;19.88;;;5.28;;
25155;SDS011;71253;51.496;7.606;2024-02-21T12:17:21;20.35;;;4.78;;
25155;SDS011;71253;51.496;7.606;2024-02-21T12:22:24;17.10;;;4.82;;
25155;SDS011;71253;51.496;7.606;2024-02-21T12:27:26;20.52;;;5.20;;
25155;SDS011;71253;51.496;7.606;2024-02-21T12:32:28;18.20;;;4.47;;
25155;SDS011;71253;51.496;7.606;2024-02-21T12:37:29;18.42;;;4.65;;
25155;SDS011;71253;51.496;7.606;2024-02-21T12:42:31;18.35;;;4.30;;
25155;SDS011;71253;51.496;7.606;2024-02-21T12:47:32;20.20;;;5.18;;
25155;SDS011;71253;51.496;7.606;2024-02-21T12:52:34;20.05;;;4.45;;
25155;SDS011;71253;51.496;7.606;2024-02-21T12:57:36;13.77;;;4.20;;
25155;SDS011;71253;51.496;7.606;2024-02-21T13:02:37;17.58;;;4.05;;
25155;SDS011;71253;51.496;7.606;2024-02-21T13:07:42;18.73;;;3.97;;
25155;SDS011;71253;51.496;7.606;2024-02-21T13:12:43;17.25;;;4.10;;
25155;SDS011;71253;51.496;7.606;2024-02-21T13:17:45;19.63;;;4.30;;
25155;SDS011;71253;51.496;7.606;2024-02-21T13:22:47;16.73;;;4.18;;
25155;SDS011;71253;51.496;7.606;2024-02-21T13:27:48;14.63;;;3.38;;
25155;SDS011;71253;51.496;7.606;2024-02-21T13:32:50;13.38;;;3.72;;
25155;SDS011;71253;51.496;7.606;2024-02-21T13:37:51;23.27;;;4.20;;
25155;SDS011;71253;51.496;7.606;2024-02-21T13:42:53;16.50;;;4.00;;
25155;SDS011;71253;51.496;7.606;2024-02-21T13:47:56;21.30;;;4.25;;
25155;SDS011;71253;51.496;7.606;2024-02-21T13:52:58;20.90;;;4.28;;
25155;SDS011;71253;51.496;7.606;2024-02-21T13:57:59;18.10;;;4.60;;
25155;SDS011;71253;51.496;7.606;2024-02-21T14:03:01;20.77;;;5.38;;
25155;SDS011;71253;51.496;7.606;2024-02-21T14:08:03;18.10;;;4.60;;
25155;SDS011;71253;51.496;7.606;2024-02-21T14:13:05;21.00;;;6.97;;
25155;SDS011;71253;51.496;7.606;2024-02-21T14:18:07;21.38;;;5.32;;
25155;SDS011;71253;51.496;7.606;2024-02-21T14:23:08;17.73;;;4.97;;
25155;SDS011;71253;51.496;7.606;2024-02-21T14:28:10;22.33;;;4.93;;
25155;SDS011;71253;51.496;7.606;2024-02-21T14:33:12;17.45;;;4.70;;
25155;SDS011;71253;51.496;7.606;2024-02-21T14:38:13;17.60;;;4.40;;
25155;SDS011;71253;51.496;7.606;2024-02-21T14:43:15;20.85;;;4.47;;
25155;SDS011;71253;51.496;7.606;2024-02-21T14:48:16;17.95;;;4.18;;
25155;SDS011;71253;51.496;7.606;2024-02-21T14:53:18;17.73;;;4.63;;
25155;SDS011;71253;51.496;7.606;2024-02-21T14:58:20;18.85;;;4.43;;
25155;SDS011;71253;51.496;7.606;2024-02-21T15:03:22;17.13;;;4.25;;
25155;SDS011;71253;51.496;7.606;2024-02-21T15:08:24;19.65;;;4.47;;
25155;SDS011;71253;51.496;7.606;2024-02-21T15:13:27;20.05;;;4.50;;
25155;SDS011;71253;51.496;7.606;2024-02-21T15:18:28;13.45;;;3.95;;
25155;SDS011;71253;51.496;7.606;2024-02-21T15:23:30;12.77;;;3.40;;
25155;SDS011;71253;51.496;7.606;2024-02-21T15:28:31;15.02;;;3.83;;
25155;SDS011;71253;51.496;7.606;2024-02-21T15:33:33;17.58;;;3.75;;
25155;SDS011;71253;51.496;7.606;2024-02-21T15:38:36;15.68;;;3.60;;
25155;SDS011;71253;51.496;7.606;2024-02-21T15:43:37;15.80;;;3.88;;
25155;SDS011;71253;51.496;7.606;2024-02-21T15:48:39;17.10;;;3.83;;
25155;SDS011;71253;51.496;7.606;2024-02-21T15:53:41;18.27;;;3.47;;
25155;SDS011;71253;51.496;7.606;2024-02-21T15:58:42;18.45;;;3.88;;
25155;SDS011;71253;51.496;7.606;2024-02-21T16:03:44;13.50;;;3.30;;
25155;SDS011;71253;51.496;7.606;2024-02-21T16:08:46;16.92;;;3.15;;
25155;SDS011;71253;51.496;7.606;2024-02-21T16:13:47;18.58;;;3.13;;
25155;SDS011;71253;51.496;7.606;2024-02-21T16:18:49;21.55;;;3.50;;
25155;SDS011;71253;51.496;7.606;2024-02-21T16:23:50;17.45;;;3.00;;
25155;SDS011;71253;51.496;7.606;2024-02-21T16:28:52;18.42;;;2.95;;
25155;SDS011;71253;51.496;7.606;2024-02-21T16:33:53;12.27;;;2.92;;
25155;SDS011;71253;51.496;7.606;2024-02-21T16:38:57;20.10;;;3.45;;
25155;SDS011;71253;51.496;7.606;2024-02-21T16:44:01;12.65;;;2.78;;
25155;SDS011;71253;51.496;7.606;2024-02-21T16:49:02;13.30;;;3.03;;
25155;SDS011;71253;51.496;7.606;2024-02-21T16:54:04;17.13;;;3.03;;
25155;SDS011;71253;51.496;7.606;2024-02-21T16:59:05;11.40;;;2.47;;
25155;SDS011;71253;51.496;7.606;2024-02-21T17:04:07;19.02;;;3.20;;
25155;SDS011;71253;51.496;7.606;2024-02-21T17:09:08;11.40;;;2.92;;
25155;SDS011;71253;51.496;7.606;2024-02-21T17:14:10;14.23;;;3.15;;
25155;SDS011;71253;51.496;7.606;2024-02-21T17:19:12;12.50;;;2.85;;
25155;SDS011;71253;51.496;7.606;2024-02-21T17:24:13;12.98;;;3.15;;
25155;SDS011;71253;51.496;7.606;2024-02-21T17:29:15;14.55;;;2.90;;
25155;SDS011;71253;51.496;7.606;2024-02-21T17:34:17;14.27;;;3.13;;
25155;SDS011;71253;51.496;7.606;2024-02-21T17:39:18;11.60;;;2.70;;
25155;SDS011;71253;51.496;7.606;2024-02-21T17:44:20;15.90;;;2.80;;
25155;SDS011;71253;51.496;7.606;2024-02-21T17:49:23;15.10;;;3.00;;
25155;SDS011;71253;51.496;7.606;2024-02-21T17:54:25;13.85;;;2.83;;
25155;SDS011;71253;51.496;7.606;2024-02-21T17:59:26;12.90;;;2.78;;
25155;SDS011;71253;51.496;7.606;2024-02-21T18:04:28;10.38;;;2.40;;
25155;SDS011;71253;51.496;7.606;2024-02-21T18:09:30;16.13;;;2.60;;
25155;SDS011;71253;51.496;7.606;2024-02-21T18:14:31;12.07;;;2.42;;
25155;SDS011;71253;51.496;7.606;2024-02-21T18:19:33;10.30;;;2.45;;
25155;SDS011;71253;51.496;7.606;2024-02-21T18:24:35;18.40;;;2.83;;
25155;SDS011;71253;51.496;7.606;2024-02-21T18:29:37;9.05;;;3.00;;
25155;SDS011;71253;51.496;7.606;2024-02-21T18:34:39;14.55;;;2.38;;
25155;SDS011;71253;51.496;7.606;2024-02-21T18:39:40;9.25;;;2.50;;
25155;SDS011;71253;51.496;7.606;2024-02-21T18:44:42;12.10;;;2.88;;
25155;SDS011;71253;51.496;7.606;2024-02-21T18:49:44;10.63;;;2.67;;
25155;SDS011;71253;51.496;7.606;2024-02-21T18:54:45;11.00;;;2.70;;
25155;SDS011;71253;51.496;7.606;2024-02-21T18:59:49;12.57;;;2.95;;
25155;SDS011;71253;51.496;7.606;2024-02-21T19:04:50;14.00;;;3.30;;
25155;SDS011;71253;51.496;7.606;2024-02-21T19:09:52;13.65;;;2.97;;
25155;SDS011;71253;51.496;7.606;2024-02-21T19:14:57;13.45;;;2.85;;
25155;SDS011;71253;51.496;7.606;2024-02-21T19:19:58;13.52;;;2.90;;
25155;SDS011;71253;51.496;7.606;2024-02-21T19:25:00;10.35;;;3.30;;
25155;SDS011;71253;51.496;7.606;2024-02-21T19:30:02;13.32;;;3.60;;
25155;SDS011;71253;51.496;7.606;2024-02-21T19:35:05;13.75;;;3.55;;
25155;SDS011;71253;51.496;7.606;2024-02-21T19:40:07;12.23;;;3.45;;
25155;SDS011;71253;51.496;7.606;2024-02-21T19:45:09;11.50;;;3.33;;
25155;SDS011;71253;51.496;7.606;2024-02-21T19:50:11;13.23;;;3.80;;
25155;SDS011;71253;51.496;7.606;2024-02-21T19:55:13;11.20;;;3.40;;
25155;SDS011;71253;51.496;7.606;2024-02-21T20:00:16;15.50;;;3.90;;
25155;SDS011;71253;51.496;7.606;2024-02-21T20:05:18;9.48;;;3.28;;
25155;SDS011;71253;51.496;7.606;2024-02-21T20:10:20;13.32;;;3.53;;
25155;SDS011;71253;51.496;7.606;2024-02-21T20:15:22;9.20;;;3.40;;
25155;SDS011;71253;51.496;7.606;2024-02-21T20:20:23;11.55;;;3.63;;
25155;SDS011;71253;51.496;7.606;2024-02-21T20:25:26;14.20;;;4.13;;
25155;SDS011;71253;51.496;7.606;2024-02-21T20:30:28;11.57;;;3.65;;
25155;SDS011;71253;51.496;7.606;2024-02-21T20:35:30;11.57;;;3.35;;
25155;SDS011;71253;51.496;7.606;2024-02-21T20:40:31;12.23;;;3.75;;
25155;SDS011;71253;51.496;7.606;2024-02-21T20:45:33;13.38;;;4.25;;
25155;SDS011;71253;51.496;7.606;2024-02-21T20:50:34;13.05;;;4.25;;
25155;SDS011;71253;51.496;7.606;2024-02-21T20:55:36;15.88;;;4.10;;
25155;SDS011;71253;51.496;7.606;2024-02-21T21:00:38;16.52;;;4.38;;
25155;SDS011;71253;51.496;7.606;2024-02-21T21:05:39;16.08;;;4.75;;
25155;SDS011;71253;51.496;7.606;2024-02-21T21:10:41;15.55;;;5.10;;
25155;SDS011;71253;51.496;7.606;2024-02-21T21:15:42;11.35;;;4.53;;
25155;SDS011;71253;51.496;7.606;2024-02-21T21:20:45;14.38;;;5.00;;
25155;SDS011;71253;51.496;7.606;2024-02-21T21:25:47;11.30;;;4.43;;
25155;SDS011;71253;51.496;7.606;2024-02-21T21:30:48;13.82;;;4.70;;
25155;SDS011;71253;51.496;7.606;2024-02-21T21:35:50;14.75;;;4.43;;
25155;SDS011;71253;51.496;7.606;2024-02-21T21:40:51;14.35;;;4.70;;
25155;SDS011;71253;51.496;7.606;2024-02-21T21:45:53;15.07;;;5.00;;
25155;SDS011;71253;51.496;7.606;2024-02-21T21:50:54;14.35;;;4.57;;
25155;SDS011;71253;51.496;7.606;2024-02-21T21:55:56;9.55;;;4.22;;
25155;SDS011;71253;51.496;7.606;2024-02-21T22:00:57;11.48;;;3.80;;
25155;SDS011;71253;51.496;7.606;2024-02-21T22:06:01;10.88;;;4.53;;
25155;SDS011;71253;51.496;7.606;2024-02-21T22:11:03;11.90;;;4.20;;
25155;SDS011;71253;51.496;7.606;2024-02-21T22:16:05;9.35;;;3.85;;
25155;SDS011;71253;51.496;7.606;2024-02-21T22:21:07;12.23;;;4.15;;
25155;SDS011;71253;51.496;7.606;2024-02-21T22:26:09;11.82;;;4.03;;
25155;SDS011;71253;51.496;7.606;2024-02-21T22:31:14;9.07;;;4.13;;
25155;SDS011;71253;51.496;7.606;2024-02-21T22:36:16;11.82;;;4.13;;
25155;SDS011;71253;51.496;7.606;2024-02-21T22:41:18;9.02;;;4.00;;
25155;SDS011;71253;51.496;7.606;2024-02-21T22:46:20;7.70;;;3.50;;
25155;SDS011;71253;51.496;7.606;2024-02-21T22:51:22;6.95;;;3.50;;
25155;SDS011;71253;51.496;7.606;2024-02-21T22:56:23;9.25;;;3.30;;
25155;SDS011;71253;51.496;7.606;2024-02-21T23:01:25;8.13;;;3.30;;
25155;SDS011;71253;51.496;7.606;2024-02-21T23:06:27;6.90;;;3.13;;
25155;SDS011;71253;51.496;7.606;2024-02-21T23:11:29;5.70;;;3.00;;
25155;SDS011;71253;51.496;7.606;2024-02-21T23:16:30;7.93;;;3.20;;
25155;SDS011;71253;51.496;7.606;2024-02-21T23:21:32;4.88;;;2.72;;
25155;SDS011;71253;51.496;7.606;2024-02-21T23:26:33;6.53;;;2.75;;
25155;SDS011;71253;51.496;7.606;2024-02-21T23:31:37;6.07;;;2.60;;
25155;SDS011;71253;51.496;7.606;2024-02-21T23:36:39;5.93;;;2.30;;
25155;SDS011;71253;51.496;7.606;2024-02-21T23:41:41;4.90;;;2.13;;
25155;SDS011;71253;51.496;7.606;2024-02-21T23:46:42;3.28;;;1.70;;
25155;SDS011;71253;51.496;7.606;2024-02-21T23:51:44;5.00;;;1.90;;
25155;SDS011;71253;51.496;7.606;2024-02-21T23:56:46;3.38;;;2.00;;
